createdAt,value
2022-12-09T00:00:30.091Z,9.63
2022-12-09T00:03:23.505Z,10.47
2022-12-09T00:05:49.988Z,10.47
2022-12-09T00:08:16.560Z,13.70
2022-12-09T00:10:44.365Z,19.13
2022-12-09T00:13:10.840Z,18.33
2022-12-09T00:15:41.914Z,11.10
2022-12-09T00:18:09.479Z,11.17
2022-12-09T00:20:35.807Z,10.33
2022-12-09T00:23:02.327Z,11.40
2022-12-09T00:25:28.626Z,12.93
2022-12-09T00:27:55.135Z,12.23
2022-12-09T00:30:21.286Z,11.67
2022-12-09T00:32:49.310Z,10.73
2022-12-09T00:35:15.592Z,10.37
2022-12-09T00:37:42.223Z,10.27
2022-12-09T00:40:09.366Z,9.57
2022-12-09T00:42:36.703Z,9.40
2022-12-09T00:45:03.245Z,9.40
2022-12-09T00:47:29.828Z,11.17
2022-12-09T00:49:56.327Z,11.93
2022-12-09T00:52:23.163Z,10.10
2022-12-09T00:54:49.637Z,9.27
2022-12-09T00:57:16.211Z,9.47
2022-12-09T00:59:42.384Z,10.30
2022-12-09T01:02:09.019Z,12.80
2022-12-09T01:04:36.085Z,19.60
2022-12-09T01:07:02.955Z,11.27
2022-12-09T01:09:29.256Z,10.50
2022-12-09T01:11:55.802Z,9.73
2022-12-09T01:14:21.973Z,9.40
2022-12-09T01:16:48.732Z,9.47
2022-12-09T01:19:16.124Z,9.50
2022-12-09T01:21:42.706Z,7.83
2022-12-09T01:24:10.369Z,7.80
2022-12-09T01:26:37.644Z,8.53
2022-12-09T01:29:04.292Z,8.00
2022-12-09T01:31:30.843Z,7.60
2022-12-09T01:33:57.397Z,8.33
2022-12-09T01:36:28.647Z,8.47
2022-12-09T01:38:57.672Z,8.60
2022-12-09T01:41:25.051Z,7.60
2022-12-09T01:44:11.775Z,8.67
2022-12-09T01:46:38.351Z,8.47
2022-12-09T01:49:07.643Z,9.30
2022-12-09T01:51:36.036Z,8.63
2022-12-09T01:54:03.100Z,8.30
2022-12-09T01:56:33.558Z,8.37
2022-12-09T01:59:08.477Z,8.27
2022-12-09T02:01:35.798Z,7.97
2022-12-09T02:04:02.520Z,8.87
2022-12-09T02:06:29.413Z,8.23
2022-12-09T02:08:57.324Z,8.13
2022-12-09T02:11:43.141Z,9.30
2022-12-09T02:14:39.641Z,9.27
2022-12-09T02:17:30.700Z,8.53
2022-12-09T02:20:03.085Z,8.57
2022-12-09T02:22:44.634Z,8.60
2022-12-09T02:25:32.120Z,9.00
2022-12-09T02:28:24.130Z,10.10
2022-12-09T02:31:04.677Z,10.37
2022-12-09T02:33:44.376Z,9.00
2022-12-09T02:36:17.571Z,10.73
2022-12-09T02:38:48.875Z,10.03
2022-12-09T02:41:23.419Z,9.03
2022-12-09T02:43:56.010Z,10.50
2022-12-09T02:46:28.660Z,9.30
2022-12-09T02:48:58.494Z,10.13
2022-12-09T02:51:28.624Z,10.87
2022-12-09T02:54:02.675Z,9.90
2022-12-09T02:56:30.659Z,9.47
2022-12-09T02:58:57.524Z,9.23
2022-12-09T03:01:32.353Z,9.67
2022-12-09T03:03:59.668Z,9.50
2022-12-09T03:06:33.883Z,9.33
2022-12-09T03:09:09.558Z,9.43
2022-12-09T03:11:37.637Z,10.30
2022-12-09T03:14:09.195Z,10.10
2022-12-09T03:16:41.742Z,8.90
2022-12-09T03:19:22.122Z,9.70
2022-12-09T03:21:52.961Z,10.00
2022-12-09T03:24:30.263Z,9.90
2022-12-09T03:26:59.874Z,9.87
2022-12-09T03:29:28.605Z,10.70
2022-12-09T03:31:57.409Z,9.23
2022-12-09T03:34:32.306Z,10.43
2022-12-09T03:37:01.336Z,10.23
2022-12-09T03:39:33.690Z,10.27
2022-12-09T03:42:05.041Z,10.47
2022-12-09T03:44:43.381Z,10.97
2022-12-09T03:47:10.613Z,11.10
2022-12-09T03:49:38.982Z,10.60
2022-12-09T03:52:08.098Z,10.20
2022-12-09T03:54:45.361Z,10.83
2022-12-09T03:57:18.712Z,10.63
2022-12-09T03:59:56.655Z,11.20
2022-12-09T04:02:23.630Z,11.03
2022-12-09T04:04:51.175Z,11.17
2022-12-09T04:07:18.102Z,10.37
2022-12-09T04:09:46.376Z,10.03
2022-12-09T04:12:12.611Z,11.37
2022-12-09T04:14:39.165Z,11.13
2022-12-09T04:17:05.671Z,11.07
2022-12-09T04:19:32.765Z,11.73
2022-12-09T04:21:59.586Z,11.67
2022-12-09T04:24:26.019Z,11.50
2022-12-09T04:26:52.175Z,12.27
2022-12-09T04:29:18.954Z,14.00
2022-12-09T04:31:45.575Z,13.37
2022-12-09T04:34:12.769Z,14.10
2022-12-09T04:36:39.477Z,12.67
2022-12-09T04:39:06.831Z,10.87
2022-12-09T04:41:33.525Z,15.13
2022-12-09T04:44:00.716Z,14.10
2022-12-09T04:46:27.112Z,13.63
2022-12-09T04:48:53.610Z,15.57
2022-12-09T04:51:20.192Z,12.30
2022-12-09T04:53:47.061Z,12.90
2022-12-09T04:56:20.545Z,13.03
2022-12-09T04:58:48.688Z,11.93
2022-12-09T05:01:24.773Z,11.47
2022-12-09T05:03:54.973Z,12.03
2022-12-09T05:06:22.117Z,12.00
2022-12-09T05:08:49.161Z,12.17
2022-12-09T05:11:17.247Z,12.87
2022-12-09T05:13:44.801Z,19.47
2022-12-09T05:16:16.375Z,16.40
2022-12-09T05:18:44.815Z,14.67
2022-12-09T05:21:14.417Z,13.73
2022-12-09T05:23:42.297Z,13.70
2022-12-09T05:26:12.015Z,12.17
2022-12-09T05:28:38.950Z,14.13
2022-12-09T05:31:09.280Z,15.37
2022-12-09T05:33:36.977Z,12.70
2022-12-09T05:36:03.748Z,12.53
2022-12-09T05:38:30.620Z,14.50
2022-12-09T05:41:00.614Z,14.80
2022-12-09T05:43:27.677Z,15.00
2022-12-09T05:45:55.033Z,13.27
2022-12-09T05:48:22.686Z,13.20
2022-12-09T05:51:08.059Z,12.80
2022-12-09T05:53:34.817Z,14.60
2022-12-09T05:56:01.921Z,13.60
2022-12-09T05:58:29.577Z,13.40
2022-12-09T06:01:02.496Z,14.17
2022-12-09T06:03:29.750Z,15.30
2022-12-09T06:05:56.467Z,15.63
2022-12-09T06:08:23.891Z,15.03
2022-12-09T06:10:50.960Z,16.30
2022-12-09T06:13:17.709Z,14.80
2022-12-09T06:15:44.067Z,16.03
2022-12-09T06:18:11.393Z,15.63
2022-12-09T06:20:41.116Z,15.80
2022-12-09T06:23:07.913Z,15.67
2022-12-09T06:25:34.965Z,19.43
2022-12-09T06:28:02.267Z,18.13
2022-12-09T06:30:29.087Z,20.13
2022-12-09T06:32:55.821Z,16.93
2022-12-09T06:35:22.239Z,14.97
2022-12-09T06:37:52.267Z,16.90
2022-12-09T06:40:21.980Z,16.13
2022-12-09T06:42:49.976Z,17.23
2022-12-09T06:45:19.891Z,16.20
2022-12-09T06:47:47.550Z,15.97
2022-12-09T06:50:14.743Z,14.17
2022-12-09T06:52:41.615Z,15.00
2022-12-09T06:55:10.309Z,14.63
2022-12-09T06:57:38.206Z,15.00
2022-12-09T07:00:05.619Z,15.57
2022-12-09T07:02:36.056Z,14.23
2022-12-09T07:05:05.743Z,14.40
2022-12-09T07:07:33.195Z,12.77
2022-12-09T07:10:07.960Z,14.00
2022-12-09T07:12:34.785Z,13.47
2022-12-09T07:15:01.483Z,13.20
2022-12-09T07:17:28.779Z,13.00
2022-12-09T07:20:00.143Z,14.70
2022-12-09T07:22:33.047Z,14.13
2022-12-09T07:24:59.710Z,12.33
2022-12-09T07:27:26.834Z,12.80
2022-12-09T07:30:18.251Z,12.80
2022-12-09T07:32:45.174Z,12.43
2022-12-09T07:35:12.270Z,13.40
2022-12-09T07:37:39.285Z,11.33
2022-12-09T07:40:06.740Z,11.47
2022-12-09T07:42:35.399Z,13.87
2022-12-09T07:45:05.159Z,13.17
2022-12-09T07:47:33.375Z,12.83
2022-12-09T07:50:04.695Z,13.23
2022-12-09T07:52:33.768Z,13.33
2022-12-09T07:55:00.887Z,13.33
2022-12-09T07:57:28.504Z,14.47
2022-12-09T07:59:56.305Z,15.20
2022-12-09T08:02:23.315Z,15.77
2022-12-09T08:04:50.234Z,15.67
2022-12-09T08:07:17.541Z,14.67
2022-12-09T08:09:44.247Z,15.57
2022-12-09T08:12:12.688Z,17.53
2022-12-09T08:14:39.764Z,21.57
2022-12-09T08:17:07.252Z,23.83
2022-12-09T08:19:33.954Z,23.30
2022-12-09T08:22:01.027Z,19.07
2022-12-09T08:24:27.598Z,19.43
2022-12-09T08:26:54.439Z,16.83
2022-12-09T08:29:21.533Z,19.60
2022-12-09T08:31:49.009Z,16.37
2022-12-09T08:34:16.803Z,15.83
2022-12-09T08:36:44.371Z,16.50
2022-12-09T08:39:13.082Z,19.43
2022-12-09T08:41:40.712Z,22.33
2022-12-09T08:44:16.559Z,19.33
2022-12-09T08:46:47.143Z,15.60
2022-12-09T08:49:17.826Z,16.83
2022-12-09T08:51:46.199Z,16.57
2022-12-09T08:54:12.832Z,16.50
2022-12-09T08:56:41.496Z,14.63
2022-12-09T08:59:08.348Z,15.73
2022-12-09T09:01:36.015Z,14.30
2022-12-09T09:04:09.615Z,14.17
2022-12-09T09:06:41.482Z,16.80
2022-12-09T09:09:10.062Z,29.10
2022-12-09T09:11:37.741Z,29.77
2022-12-09T09:14:06.198Z,16.17
2022-12-09T09:16:34.568Z,15.40
2022-12-09T09:19:02.992Z,14.47
2022-12-09T09:21:30.005Z,15.87
2022-12-09T09:23:56.565Z,16.60
2022-12-09T09:26:25.442Z,16.03
2022-12-09T09:28:55.847Z,16.77
2022-12-09T09:31:24.092Z,20.00
2022-12-09T09:33:51.956Z,15.03
2022-12-09T09:36:22.616Z,15.83
2022-12-09T09:38:51.561Z,19.07
2022-12-09T09:41:38.578Z,20.53
2022-12-09T09:44:27.350Z,36.07
2022-12-09T09:46:56.407Z,69.23
2022-12-09T09:49:38.420Z,25.60
2022-12-09T09:52:15.179Z,67.27
2022-12-09T09:54:41.653Z,44.43
2022-12-09T09:57:11.196Z,30.93
2022-12-09T09:59:41.253Z,16.77
2022-12-09T10:02:11.413Z,14.43
2022-12-09T10:04:41.442Z,15.30
2022-12-09T10:07:12.393Z,16.20
2022-12-09T10:09:53.154Z,16.47
2022-12-09T10:12:20.438Z,18.87
2022-12-09T10:14:54.425Z,16.20
2022-12-09T10:17:39.216Z,15.57
2022-12-09T10:20:24.338Z,22.47
2022-12-09T10:22:58.255Z,14.83
2022-12-09T10:25:31.066Z,16.80
2022-12-09T10:28:27.759Z,14.10
2022-12-09T10:30:55.623Z,13.87
2022-12-09T10:33:28.649Z,16.13
2022-12-09T10:35:55.640Z,14.87
2022-12-09T10:38:24.349Z,14.90
2022-12-09T10:41:07.320Z,16.03
2022-12-09T10:43:43.389Z,19.30
2022-12-09T10:46:21.010Z,13.30
2022-12-09T10:48:49.069Z,14.83
2022-12-09T10:51:20.546Z,15.00
2022-12-09T10:53:51.676Z,15.00
2022-12-09T10:56:26.058Z,16.17
2022-12-09T10:59:15.216Z,14.63
2022-12-09T11:01:52.208Z,13.57
2022-12-09T11:04:40.542Z,12.83
2022-12-09T11:07:06.949Z,22.83
2022-12-09T11:09:36.744Z,21.20
2022-12-09T11:12:06.615Z,19.00
2022-12-09T11:14:47.910Z,12.17
2022-12-09T11:17:24.263Z,33.97
2022-12-09T11:20:09.816Z,19.30
2022-12-09T11:22:41.848Z,16.37
2022-12-09T11:25:12.079Z,32.37
2022-12-09T11:27:42.758Z,15.10
2022-12-09T11:30:16.028Z,26.40
2022-12-09T11:33:05.233Z,13.80
2022-12-09T11:35:55.638Z,12.83
2022-12-09T11:38:35.688Z,21.80
2022-12-09T11:41:11.261Z,22.50
2022-12-09T11:43:49.446Z,24.37
2022-12-09T11:46:21.690Z,22.10
2022-12-09T11:49:01.260Z,22.00
2022-12-09T11:51:35.270Z,10.63
2022-12-09T11:54:10.569Z,19.63
2022-12-09T11:56:40.043Z,17.07
2022-12-09T11:59:13.120Z,12.67
2022-12-09T12:02:05.324Z,12.33
2022-12-09T12:04:53.725Z,10.77
2022-12-09T12:07:40.807Z,11.50
2022-12-09T12:10:34.700Z,34.00
2022-12-09T12:13:19.321Z,20.03
2022-12-09T12:15:58.015Z,22.07
2022-12-09T12:18:28.820Z,18.50
2022-12-09T12:21:10.158Z,13.70
2022-12-09T12:23:48.855Z,24.20
2022-12-09T12:26:15.008Z,18.27
2022-12-09T12:28:57.222Z,24.27
2022-12-09T12:31:50.019Z,18.43
2022-12-09T12:34:44.103Z,16.50
2022-12-09T12:37:34.615Z,70.60
2022-12-09T12:40:27.191Z,31.27
2022-12-09T12:43:24.767Z,20.87
2022-12-09T12:46:17.133Z,16.93
2022-12-09T12:49:08.089Z,25.90
2022-12-09T12:51:49.723Z,19.70
2022-12-09T12:54:25.999Z,14.07
2022-12-09T12:57:10.711Z,21.17
2022-12-09T13:00:26.273Z,14.77
2022-12-09T13:03:01.928Z,29.27
2022-12-09T13:05:36.638Z,17.30
2022-12-09T13:08:30.104Z,15.37
2022-12-09T13:11:01.284Z,19.63
2022-12-09T13:13:27.798Z,20.23
2022-12-09T13:15:59.837Z,15.83
2022-12-09T13:18:39.249Z,21.13
2022-12-09T13:21:06.770Z,19.40
2022-12-09T13:23:48.244Z,17.27
2022-12-09T13:26:41.519Z,25.53
2022-12-09T13:29:35.616Z,20.93
2022-12-09T13:32:15.209Z,18.40
2022-12-09T13:34:49.292Z,22.57
2022-12-09T13:37:30.494Z,17.97
2022-12-09T13:39:58.069Z,23.37
2022-12-09T13:42:46.771Z,27.77
2022-12-09T13:45:22.889Z,20.47
2022-12-09T13:47:52.565Z,21.43
2022-12-09T13:50:39.075Z,23.27
2022-12-09T13:53:14.492Z,24.53
2022-12-09T13:55:58.357Z,23.13
2022-12-09T13:58:55.223Z,19.83
2022-12-09T14:01:42.995Z,19.23
2022-12-09T14:04:34.186Z,21.30
2022-12-09T14:07:10.084Z,19.43
2022-12-09T14:09:49.574Z,19.93
2022-12-09T14:12:24.984Z,19.97
2022-12-09T14:15:10.031Z,22.30
2022-12-09T14:17:36.566Z,24.57
2022-12-09T14:20:38.758Z,19.27
2022-12-09T14:23:09.080Z,23.97
2022-12-09T14:25:35.540Z,21.93
2022-12-09T14:28:11.693Z,21.07
2022-12-09T14:30:53.635Z,23.37
2022-12-09T14:33:24.125Z,20.63
2022-12-09T14:35:56.323Z,19.17
2022-12-09T14:38:29.230Z,19.70
2022-12-09T14:41:24.691Z,32.73
2022-12-09T14:44:18.960Z,26.63
2022-12-09T14:46:49.322Z,21.00
2022-12-09T14:49:28.917Z,22.00
2022-12-09T14:51:58.202Z,37.50
2022-12-09T14:54:45.099Z,29.93
2022-12-09T14:57:33.361Z,27.97
2022-12-09T14:59:59.968Z,23.63
2022-12-09T15:02:31.708Z,25.43
2022-12-09T15:05:01.301Z,24.10
2022-12-09T15:07:31.867Z,23.07
2022-12-09T15:10:01.337Z,24.90
2022-12-09T15:12:39.885Z,24.97
2022-12-09T15:15:09.403Z,41.20
2022-12-09T15:17:51.697Z,26.77
2022-12-09T15:20:29.397Z,22.30
2022-12-09T15:23:19.593Z,24.43
2022-12-09T15:25:52.519Z,23.33
2022-12-09T15:28:28.203Z,24.17
2022-12-09T15:30:56.694Z,26.17
2022-12-09T15:33:23.764Z,26.47
2022-12-09T15:35:53.319Z,24.87
2022-12-09T15:38:20.305Z,22.13
2022-12-09T15:41:06.096Z,21.63
2022-12-09T15:43:36.174Z,19.90
2022-12-09T15:46:03.582Z,20.70
2022-12-09T15:48:36.599Z,20.40
2022-12-09T15:51:15.697Z,29.47
2022-12-09T15:53:55.833Z,28.57
2022-12-09T15:56:34.480Z,23.50
2022-12-09T15:59:15.263Z,35.90
2022-12-09T16:01:49.431Z,17.97
2022-12-09T16:04:19.543Z,18.73
2022-12-09T16:06:47.422Z,17.83
2022-12-09T16:09:17.167Z,15.70
2022-12-09T16:11:47.846Z,17.17
2022-12-09T16:14:16.937Z,17.13
2022-12-09T16:17:00.790Z,14.97
2022-12-09T16:19:30.782Z,16.33
2022-12-09T16:21:59.563Z,14.30
2022-12-09T16:24:44.095Z,14.20
2022-12-09T16:27:22.400Z,14.63
2022-12-09T16:29:52.586Z,13.90
2022-12-09T16:32:21.852Z,16.87
2022-12-09T16:34:54.915Z,28.90
2022-12-09T16:37:28.935Z,18.00
2022-12-09T16:39:57.989Z,20.63
2022-12-09T16:42:36.483Z,75.87
2022-12-09T16:46:04.910Z,74.20
2022-12-09T16:48:32.330Z,31.53
2022-12-09T16:51:16.873Z,23.13
2022-12-09T16:53:46.171Z,18.37
2022-12-09T16:56:24.783Z,22.27
2022-12-09T16:58:52.773Z,17.97
2022-12-09T17:01:34.730Z,19.33
2022-12-09T17:04:13.146Z,16.60
2022-12-09T17:06:40.088Z,17.23
2022-12-09T17:09:06.672Z,18.57
2022-12-09T17:11:33.982Z,18.70
2022-12-09T17:14:00.621Z,18.03
2022-12-09T17:16:27.757Z,20.30
2022-12-09T17:18:54.455Z,18.57
2022-12-09T17:21:20.954Z,19.73
2022-12-09T17:23:47.854Z,18.07
2022-12-09T17:26:17.698Z,18.13
2022-12-09T17:28:45.427Z,20.67
2022-12-09T17:31:18.150Z,23.03
2022-12-09T17:33:45.155Z,19.57
2022-12-09T17:36:12.714Z,22.67
2022-12-09T17:38:39.778Z,20.60
2022-12-09T17:41:08.891Z,24.27
2022-12-09T17:43:36.052Z,22.90
2022-12-09T17:46:04.612Z,29.03
2022-12-09T17:48:33.117Z,21.50
2022-12-09T17:51:07.575Z,21.53
2022-12-09T17:53:36.359Z,21.17
2022-12-09T17:56:08.620Z,26.37
2022-12-09T17:58:35.369Z,27.57
2022-12-09T18:01:01.658Z,37.13
2022-12-09T18:03:54.192Z,33.13
2022-12-09T18:06:15.727Z,26.43
2022-12-09T18:08:42.489Z,19.47
2022-12-09T18:11:10.261Z,21.17
2022-12-09T18:13:37.476Z,34.10
2022-12-09T18:16:09.589Z,31.03
2022-12-09T18:18:37.674Z,30.17
2022-12-09T18:21:04.215Z,25.23
2022-12-09T18:23:31.170Z,27.60
2022-12-09T18:25:58.390Z,31.03
2022-12-09T18:28:28.693Z,25.40
2022-12-09T18:30:55.076Z,29.33
2022-12-09T18:33:23.146Z,26.17
2022-12-09T18:35:50.076Z,25.87
2022-12-09T18:38:17.247Z,29.27
2022-12-09T18:41:02.881Z,28.30
2022-12-09T18:43:39.399Z,26.60
2022-12-09T18:46:13.249Z,26.83
2022-12-09T18:48:40.150Z,28.43
2022-12-09T18:51:16.964Z,26.27
2022-12-09T18:53:44.322Z,32.57
2022-12-09T18:56:11.299Z,27.00
2022-12-09T18:59:04.836Z,30.33
2022-12-09T19:01:28.976Z,25.50
2022-12-09T19:03:58.339Z,24.23
2022-12-09T19:06:26.337Z,29.70
2022-12-09T19:08:56.594Z,28.33
2022-12-09T19:11:28.166Z,26.60
2022-12-09T19:13:56.074Z,37.57
2022-12-09T19:16:24.034Z,29.00
2022-12-09T19:18:55.459Z,28.50
2022-12-09T19:21:23.237Z,28.23
2022-12-09T19:23:50.491Z,31.70
2022-12-09T19:26:17.972Z,26.27
2022-12-09T19:28:50.014Z,23.90
2022-12-09T19:31:17.933Z,25.07
2022-12-09T19:33:44.679Z,27.17
2022-12-09T19:36:11.635Z,28.57
2022-12-09T19:38:39.106Z,37.60
2022-12-09T19:41:06.459Z,26.10
2022-12-09T19:43:33.825Z,23.77
2022-12-09T19:46:08.368Z,26.60
2022-12-09T19:48:36.776Z,24.47
2022-12-09T19:51:10.331Z,26.07
2022-12-09T19:53:37.946Z,27.83
2022-12-09T19:56:07.918Z,22.07
2022-12-09T19:58:36.762Z,22.67
2022-12-09T20:01:15.445Z,21.70
2022-12-09T20:03:45.249Z,19.30
2022-12-09T20:06:13.780Z,20.90
2022-12-09T20:08:40.488Z,21.57
2022-12-09T20:11:11.807Z,19.23
2022-12-09T20:13:38.285Z,19.40
2022-12-09T20:16:06.649Z,20.57
2022-12-09T20:18:34.363Z,20.00
2022-12-09T20:21:05.803Z,20.93
2022-12-09T20:23:34.680Z,20.70
2022-12-09T20:26:04.855Z,19.20
2022-12-09T20:28:32.276Z,20.60
2022-12-09T20:31:07.238Z,20.97
2022-12-09T20:33:34.155Z,20.73
2022-12-09T20:36:15.256Z,20.50
2022-12-09T20:38:43.015Z,23.60
2022-12-09T20:41:13.011Z,19.30
2022-12-09T20:43:41.830Z,22.23
2022-12-09T20:46:11.934Z,23.13
2022-12-09T20:48:39.309Z,34.73
2022-12-09T20:51:23.618Z,34.73
2022-12-09T20:53:51.791Z,22.97
2022-12-09T20:56:19.843Z,23.00
2022-12-09T20:58:47.949Z,24.03
2022-12-09T21:01:23.876Z,22.33
2022-12-09T21:03:52.480Z,26.53
2022-12-09T21:06:21.099Z,50.83
2022-12-09T21:08:48.248Z,34.60
2022-12-09T21:11:22.729Z,27.63
2022-12-09T21:13:57.975Z,25.63
2022-12-09T21:16:27.170Z,28.10
2022-12-09T21:18:56.920Z,29.93
2022-12-09T21:21:25.571Z,29.40
2022-12-09T21:23:53.942Z,32.33
2022-12-09T21:26:23.128Z,26.73
2022-12-09T21:28:50.576Z,26.60
2022-12-09T21:31:23.213Z,27.00
2022-12-09T21:33:51.791Z,26.63
2022-12-09T21:36:21.774Z,28.10
2022-12-09T21:38:48.451Z,24.33
2022-12-09T21:41:20.368Z,33.50
2022-12-09T21:43:47.429Z,28.93
2022-12-09T21:46:19.014Z,31.87
2022-12-09T21:48:51.816Z,33.77
2022-12-09T21:51:19.423Z,28.10
2022-12-09T21:53:47.098Z,27.00
2022-12-09T21:56:15.137Z,26.77
2022-12-09T21:58:43.636Z,26.47
2022-12-09T22:01:13.814Z,32.63
2022-12-09T22:03:41.273Z,26.80
2022-12-09T22:06:07.879Z,28.17
2022-12-09T22:08:35.709Z,27.27
2022-12-09T22:11:11.530Z,34.97
2022-12-09T22:13:39.705Z,29.17
2022-12-09T22:16:11.562Z,28.67
2022-12-09T22:18:38.577Z,42.57
2022-12-09T22:21:27.331Z,33.10
2022-12-09T22:23:57.513Z,30.93
2022-12-09T22:26:24.699Z,31.80
2022-12-09T22:28:51.585Z,30.10
2022-12-09T22:31:22.594Z,30.97
2022-12-09T22:33:55.537Z,32.63
2022-12-09T22:36:22.574Z,30.33
2022-12-09T22:38:49.610Z,32.73
2022-12-09T22:41:19.283Z,31.37
2022-12-09T22:43:48.232Z,31.37
2022-12-09T22:46:17.273Z,29.60
2022-12-09T22:48:44.555Z,29.83
2022-12-09T22:51:14.108Z,32.03
2022-12-09T22:53:41.007Z,30.40
2022-12-09T22:56:08.228Z,28.90
2022-12-09T22:58:35.213Z,31.23
2022-12-09T23:01:01.687Z,30.30
2022-12-09T23:03:28.196Z,29.87
2022-12-09T23:05:54.923Z,29.37
2022-12-09T23:08:21.775Z,32.83
2022-12-09T23:10:48.021Z,29.50
2022-12-09T23:13:14.444Z,29.87
2022-12-09T23:15:40.705Z,28.47
2022-12-09T23:18:07.487Z,27.43
2022-12-09T23:20:34.031Z,31.17
2022-12-09T23:23:00.535Z,30.80
2022-12-09T23:25:26.674Z,28.90
2022-12-09T23:27:53.084Z,31.33
2022-12-09T23:30:19.281Z,32.97
2022-12-09T23:32:45.667Z,32.50
2022-12-09T23:35:11.900Z,32.93
2022-12-09T23:37:38.291Z,31.53
2022-12-09T23:40:05.274Z,30.77
2022-12-09T23:42:31.796Z,31.17
2022-12-09T23:44:58.331Z,29.97
2022-12-09T23:47:24.801Z,30.43
2022-12-09T23:49:50.886Z,30.93
2022-12-09T23:52:17.356Z,31.60
2022-12-09T23:54:43.488Z,31.07
2022-12-09T23:57:09.882Z,31.73
2022-12-09T23:59:36.045Z,32.37
